sensor_id;sensor_type;location;lat;lon;timestamp;P1;durP1;ratioP1;P2;durP2;ratioP2
357;SDS011;167;47.558;7.602;2023-06-22T00:00:03;7.33;;;6.70;;
357;SDS011;167;47.558;7.602;2023-06-22T00:02:35;7.20;;;6.10;;
357;SDS011;167;47.558;7.602;2023-06-22T00:05:01;6.00;;;5.50;;
357;SDS011;167;47.558;7.602;2023-06-22T00:07:27;6.30;;;5.43;;
357;SDS011;167;47.558;7.602;2023-06-22T00:09:53;6.70;;;6.20;;
357;SDS011;167;47.558;7.602;2023-06-22T00:12:19;7.20;;;6.40;;
357;SDS011;167;47.558;7.602;2023-06-22T00:14:45;7.17;;;6.47;;
357;SDS011;167;47.558;7.602;2023-06-22T00:17:11;6.73;;;6.13;;
357;SDS011;167;47.558;7.602;2023-06-22T00:19:37;7.83;;;7.03;;
357;SDS011;167;47.558;7.602;2023-06-22T00:22:05;6.03;;;5.53;;
357;SDS011;167;47.558;7.602;2023-06-22T00:24:31;6.67;;;6.17;;
357;SDS011;167;47.558;7.602;2023-06-22T00:26:57;7.40;;;6.70;;
357;SDS011;167;47.558;7.602;2023-06-22T00:29:23;6.63;;;6.03;;
357;SDS011;167;47.558;7.602;2023-06-22T00:31:49;6.47;;;5.97;;
357;SDS011;167;47.558;7.602;2023-06-22T00:34:15;7.17;;;6.43;;
357;SDS011;167;47.558;7.602;2023-06-22T00:36:41;6.30;;;5.70;;
357;SDS011;167;47.558;7.602;2023-06-22T00:39:07;6.07;;;5.57;;
357;SDS011;167;47.558;7.602;2023-06-22T00:41:33;8.20;;;5.90;;
357;SDS011;167;47.558;7.602;2023-06-22T00:43:59;9.83;;;5.50;;
357;SDS011;167;47.558;7.602;2023-06-22T00:46:25;7.43;;;6.67;;
357;SDS011;167;47.558;7.602;2023-06-22T00:48:51;8.27;;;7.00;;
357;SDS011;167;47.558;7.602;2023-06-22T00:51:17;7.77;;;6.97;;
357;SDS011;167;47.558;7.602;2023-06-22T00:53:49;6.70;;;6.07;;
357;SDS011;167;47.558;7.602;2023-06-22T00:56:16;7.27;;;6.47;;
357;SDS011;167;47.558;7.602;2023-06-22T00:58:44;7.47;;;6.80;;
357;SDS011;167;47.558;7.602;2023-06-22T01:01:12;7.60;;;6.90;;
357;SDS011;167;47.558;7.602;2023-06-22T01:03:39;9.50;;;7.63;;
357;SDS011;167;47.558;7.602;2023-06-22T01:06:15;8.73;;;7.93;;
357;SDS011;167;47.558;7.602;2023-06-22T01:08:49;9.30;;;7.60;;
357;SDS011;167;47.558;7.602;2023-06-22T01:14:00;7.20;;;6.70;;
357;SDS011;167;47.558;7.602;2023-06-22T01:16:29;9.13;;;8.23;;
357;SDS011;167;47.558;7.602;2023-06-22T01:18:57;7.67;;;7.07;;
357;SDS011;167;47.558;7.602;2023-06-22T01:21:24;7.27;;;6.77;;
357;SDS011;167;47.558;7.602;2023-06-22T01:29:16;7.73;;;7.00;;
357;SDS011;167;47.558;7.602;2023-06-22T01:31:42;10.93;;;7.00;;
357;SDS011;167;47.558;7.602;2023-06-22T01:34:09;6.87;;;6.37;;
357;SDS011;167;47.558;7.602;2023-06-22T01:36:37;11.20;;;7.30;;
357;SDS011;167;47.558;7.602;2023-06-22T01:39:03;8.67;;;6.53;;
357;SDS011;167;47.558;7.602;2023-06-22T01:41:37;8.57;;;6.83;;
357;SDS011;167;47.558;7.602;2023-06-22T01:44:06;6.50;;;6.10;;
357;SDS011;167;47.558;7.602;2023-06-22T01:46:36;8.10;;;7.40;;
357;SDS011;167;47.558;7.602;2023-06-22T01:49:02;7.27;;;6.77;;
357;SDS011;167;47.558;7.602;2023-06-22T01:51:29;7.53;;;6.83;;
357;SDS011;167;47.558;7.602;2023-06-22T01:53:55;10.37;;;7.53;;
357;SDS011;167;47.558;7.602;2023-06-22T01:56:21;7.30;;;6.80;;
357;SDS011;167;47.558;7.602;2023-06-22T01:59:03;7.30;;;6.70;;
357;SDS011;167;47.558;7.602;2023-06-22T02:01:36;8.53;;;6.70;;
357;SDS011;167;47.558;7.602;2023-06-22T02:04:18;6.77;;;6.20;;
357;SDS011;167;47.558;7.602;2023-06-22T02:06:45;8.07;;;6.43;;
357;SDS011;167;47.558;7.602;2023-06-22T02:09:14;7.23;;;5.87;;
357;SDS011;167;47.558;7.602;2023-06-22T02:11:41;6.70;;;6.20;;
357;SDS011;167;47.558;7.602;2023-06-22T02:14:08;6.77;;;6.20;;
357;SDS011;167;47.558;7.602;2023-06-22T02:16:34;6.73;;;6.13;;
357;SDS011;167;47.558;7.602;2023-06-22T02:19:02;6.77;;;5.90;;
357;SDS011;167;47.558;7.602;2023-06-22T02:21:29;8.67;;;6.43;;
357;SDS011;167;47.558;7.602;2023-06-22T02:23:55;7.17;;;6.47;;
357;SDS011;167;47.558;7.602;2023-06-22T02:26:22;7.50;;;5.53;;
357;SDS011;167;47.558;7.602;2023-06-22T02:28:49;6.00;;;5.60;;
357;SDS011;167;47.558;7.602;2023-06-22T02:31:15;6.50;;;5.97;;
357;SDS011;167;47.558;7.602;2023-06-22T02:33:41;7.70;;;7.00;;
357;SDS011;167;47.558;7.602;2023-06-22T02:36:07;6.80;;;6.20;;
357;SDS011;167;47.558;7.602;2023-06-22T02:38:34;7.00;;;6.30;;
357;SDS011;167;47.558;7.602;2023-06-22T02:41:01;7.40;;;5.70;;
357;SDS011;167;47.558;7.602;2023-06-22T02:43:27;7.03;;;6.33;;
357;SDS011;167;47.558;7.602;2023-06-22T02:45:53;6.87;;;6.20;;
357;SDS011;167;47.558;7.602;2023-06-22T02:48:19;6.40;;;5.87;;
357;SDS011;167;47.558;7.602;2023-06-22T02:50:45;8.40;;;6.20;;
357;SDS011;167;47.558;7.602;2023-06-22T02:53:11;6.70;;;6.10;;
357;SDS011;167;47.558;7.602;2023-06-22T02:55:37;7.10;;;6.40;;
357;SDS011;167;47.558;7.602;2023-06-22T02:58:04;6.60;;;6.00;;
357;SDS011;167;47.558;7.602;2023-06-22T03:00:31;11.93;;;6.90;;
357;SDS011;167;47.558;7.602;2023-06-22T03:02:57;6.73;;;6.23;;
357;SDS011;167;47.558;7.602;2023-06-22T03:05:23;6.90;;;6.20;;
357;SDS011;167;47.558;7.602;2023-06-22T03:07:49;7.33;;;6.50;;
357;SDS011;167;47.558;7.602;2023-06-22T03:10:16;12.77;;;7.10;;
357;SDS011;167;47.558;7.602;2023-06-22T03:12:42;13.10;;;7.37;;
357;SDS011;167;47.558;7.602;2023-06-22T03:15:09;10.33;;;6.30;;
357;SDS011;167;47.558;7.602;2023-06-22T03:17:36;7.20;;;6.60;;
357;SDS011;167;47.558;7.602;2023-06-22T03:20:04;7.40;;;6.53;;
357;SDS011;167;47.558;7.602;2023-06-22T03:22:40;8.57;;;7.30;;
357;SDS011;167;47.558;7.602;2023-06-22T03:25:07;7.70;;;7.03;;
357;SDS011;167;47.558;7.602;2023-06-22T03:27:38;11.80;;;8.70;;
357;SDS011;167;47.558;7.602;2023-06-22T03:30:04;10.90;;;9.80;;
357;SDS011;167;47.558;7.602;2023-06-22T03:32:30;12.70;;;10.33;;
357;SDS011;167;47.558;7.602;2023-06-22T03:34:56;10.57;;;9.60;;
357;SDS011;167;47.558;7.602;2023-06-22T03:37:23;11.10;;;9.23;;
357;SDS011;167;47.558;7.602;2023-06-22T03:39:49;11.67;;;10.50;;
357;SDS011;167;47.558;7.602;2023-06-22T03:42:15;12.00;;;10.77;;
357;SDS011;167;47.558;7.602;2023-06-22T03:44:41;14.63;;;11.27;;
357;SDS011;167;47.558;7.602;2023-06-22T03:47:07;11.93;;;10.93;;
357;SDS011;167;47.558;7.602;2023-06-22T03:49:34;13.63;;;11.87;;
357;SDS011;167;47.558;7.602;2023-06-22T03:52:00;13.93;;;12.43;;
357;SDS011;167;47.558;7.602;2023-06-22T03:54:27;14.03;;;12.57;;
357;SDS011;167;47.558;7.602;2023-06-22T03:56:53;13.87;;;12.37;;
357;SDS011;167;47.558;7.602;2023-06-22T03:59:19;17.60;;;14.27;;
357;SDS011;167;47.558;7.602;2023-06-22T04:01:45;16.63;;;13.77;;
357;SDS011;167;47.558;7.602;2023-06-22T04:04:11;15.87;;;14.37;;
357;SDS011;167;47.558;7.602;2023-06-22T04:06:37;15.83;;;14.20;;
357;SDS011;167;47.558;7.602;2023-06-22T04:09:05;16.90;;;15.20;;
357;SDS011;167;47.558;7.602;2023-06-22T04:11:31;17.77;;;16.17;;
357;SDS011;167;47.558;7.602;2023-06-22T04:13:57;18.97;;;15.87;;
357;SDS011;167;47.558;7.602;2023-06-22T04:16:23;20.53;;;14.30;;
357;SDS011;167;47.558;7.602;2023-06-22T04:18:49;18.47;;;15.97;;
357;SDS011;167;47.558;7.602;2023-06-22T04:21:15;20.73;;;16.00;;
357;SDS011;167;47.558;7.602;2023-06-22T04:23:41;17.27;;;14.60;;
357;SDS011;167;47.558;7.602;2023-06-22T04:26:08;18.93;;;15.87;;
357;SDS011;167;47.558;7.602;2023-06-22T04:28:33;17.17;;;15.37;;
357;SDS011;167;47.558;7.602;2023-06-22T04:31:03;23.10;;;16.93;;
357;SDS011;167;47.558;7.602;2023-06-22T04:33:29;16.93;;;14.40;;
357;SDS011;167;47.558;7.602;2023-06-22T04:35:55;23.10;;;17.27;;
357;SDS011;167;47.558;7.602;2023-06-22T04:38:22;22.37;;;17.40;;
357;SDS011;167;47.558;7.602;2023-06-22T04:40:49;18.20;;;16.30;;
357;SDS011;167;47.558;7.602;2023-06-22T04:43:15;18.57;;;16.50;;
357;SDS011;167;47.558;7.602;2023-06-22T04:45:41;22.27;;;18.80;;
357;SDS011;167;47.558;7.602;2023-06-22T04:48:07;17.90;;;16.10;;
357;SDS011;167;47.558;7.602;2023-06-22T04:50:40;19.10;;;16.90;;
357;SDS011;167;47.558;7.602;2023-06-22T04:53:06;20.57;;;17.00;;
357;SDS011;167;47.558;7.602;2023-06-22T04:55:34;17.27;;;15.50;;
357;SDS011;167;47.558;7.602;2023-06-22T04:58:02;19.37;;;17.23;;
357;SDS011;167;47.558;7.602;2023-06-22T05:00:30;16.60;;;15.07;;
357;SDS011;167;47.558;7.602;2023-06-22T05:02:56;16.80;;;15.10;;
357;SDS011;167;47.558;7.602;2023-06-22T05:05:23;16.07;;;14.50;;
357;SDS011;167;47.558;7.602;2023-06-22T05:07:50;16.87;;;15.07;;
357;SDS011;167;47.558;7.602;2023-06-22T05:10:17;18.73;;;16.60;;
357;SDS011;167;47.558;7.602;2023-06-22T05:12:43;22.73;;;20.40;;
357;SDS011;167;47.558;7.602;2023-06-22T05:15:09;16.33;;;14.63;;
357;SDS011;167;47.558;7.602;2023-06-22T05:17:36;18.10;;;16.27;;
357;SDS011;167;47.558;7.602;2023-06-22T05:20:07;20.87;;;17.43;;
357;SDS011;167;47.558;7.602;2023-06-22T05:22:33;16.47;;;14.80;;
357;SDS011;167;47.558;7.602;2023-06-22T05:24:59;16.87;;;15.17;;
357;SDS011;167;47.558;7.602;2023-06-22T05:27:25;15.57;;;14.07;;
357;SDS011;167;47.558;7.602;2023-06-22T05:29:51;16.80;;;15.20;;
357;SDS011;167;47.558;7.602;2023-06-22T05:32:17;14.87;;;13.43;;
357;SDS011;167;47.558;7.602;2023-06-22T05:34:43;14.80;;;13.50;;
357;SDS011;167;47.558;7.602;2023-06-22T05:37:09;15.20;;;13.70;;
357;SDS011;167;47.558;7.602;2023-06-22T05:39:36;15.67;;;14.20;;
357;SDS011;167;47.558;7.602;2023-06-22T05:42:03;16.73;;;13.17;;
357;SDS011;167;47.558;7.602;2023-06-22T05:44:30;14.43;;;13.03;;
357;SDS011;167;47.558;7.602;2023-06-22T05:46:55;15.30;;;13.70;;
357;SDS011;167;47.558;7.602;2023-06-22T05:49:21;13.00;;;11.93;;
357;SDS011;167;47.558;7.602;2023-06-22T05:51:49;12.70;;;11.63;;
357;SDS011;167;47.558;7.602;2023-06-22T05:54:15;12.20;;;10.40;;
357;SDS011;167;47.558;7.602;2023-06-22T05:56:42;12.53;;;11.43;;
357;SDS011;167;47.558;7.602;2023-06-22T05:59:08;13.67;;;11.60;;
357;SDS011;167;47.558;7.602;2023-06-22T06:01:34;14.33;;;13.03;;
357;SDS011;167;47.558;7.602;2023-06-22T06:04:01;14.00;;;12.77;;
357;SDS011;167;47.558;7.602;2023-06-22T06:06:28;13.10;;;12.10;;
357;SDS011;167;47.558;7.602;2023-06-22T06:08:54;12.10;;;10.97;;
357;SDS011;167;47.558;7.602;2023-06-22T06:11:21;11.27;;;10.17;;
357;SDS011;167;47.558;7.602;2023-06-22T06:13:47;11.40;;;10.40;;
357;SDS011;167;47.558;7.602;2023-06-22T06:16:13;10.73;;;9.73;;
357;SDS011;167;47.558;7.602;2023-06-22T06:18:39;10.83;;;9.73;;
357;SDS011;167;47.558;7.602;2023-06-22T06:21:05;10.13;;;9.13;;
357;SDS011;167;47.558;7.602;2023-06-22T06:23:31;10.33;;;9.43;;
357;SDS011;167;47.558;7.602;2023-06-22T06:25:57;11.83;;;10.73;;
357;SDS011;167;47.558;7.602;2023-06-22T06:28:24;14.00;;;10.97;;
357;SDS011;167;47.558;7.602;2023-06-22T06:30:50;11.93;;;11.00;;
357;SDS011;167;47.558;7.602;2023-06-22T06:33:16;12.13;;;10.93;;
357;SDS011;167;47.558;7.602;2023-06-22T06:35:42;12.00;;;11.00;;
357;SDS011;167;47.558;7.602;2023-06-22T06:38:08;12.03;;;10.83;;
357;SDS011;167;47.558;7.602;2023-06-22T06:40:35;11.93;;;10.87;;
357;SDS011;167;47.558;7.602;2023-06-22T06:43:01;11.17;;;10.17;;
357;SDS011;167;47.558;7.602;2023-06-22T06:45:27;12.47;;;11.50;;
357;SDS011;167;47.558;7.602;2023-06-22T06:47:55;11.83;;;10.83;;
357;SDS011;167;47.558;7.602;2023-06-22T06:50:21;11.60;;;10.60;;
357;SDS011;167;47.558;7.602;2023-06-22T06:52:47;12.63;;;11.63;;
357;SDS011;167;47.558;7.602;2023-06-22T06:55:15;12.33;;;11.23;;
357;SDS011;167;47.558;7.602;2023-06-22T06:57:41;11.27;;;10.30;;
357;SDS011;167;47.558;7.602;2023-06-22T07:00:08;11.30;;;10.30;;
357;SDS011;167;47.558;7.602;2023-06-22T07:02:37;11.93;;;10.73;;
357;SDS011;167;47.558;7.602;2023-06-22T07:05:04;12.00;;;10.90;;
357;SDS011;167;47.558;7.602;2023-06-22T07:07:30;11.80;;;10.80;;
357;SDS011;167;47.558;7.602;2023-06-22T07:09:56;14.03;;;11.60;;
357;SDS011;167;47.558;7.602;2023-06-22T07:12:22;10.70;;;9.67;;
357;SDS011;167;47.558;7.602;2023-06-22T07:14:48;10.20;;;9.30;;
357;SDS011;167;47.558;7.602;2023-06-22T07:17:15;14.67;;;12.90;;
357;SDS011;167;47.558;7.602;2023-06-22T07:19:41;10.80;;;9.70;;
357;SDS011;167;47.558;7.602;2023-06-22T07:22:07;9.90;;;9.00;;
357;SDS011;167;47.558;7.602;2023-06-22T07:24:33;10.20;;;8.90;;
357;SDS011;167;47.558;7.602;2023-06-22T07:26:59;11.43;;;10.60;;
357;SDS011;167;47.558;7.602;2023-06-22T07:29:27;11.53;;;9.40;;
357;SDS011;167;47.558;7.602;2023-06-22T07:31:53;10.30;;;9.50;;
357;SDS011;167;47.558;7.602;2023-06-22T07:34:21;10.93;;;9.80;;
357;SDS011;167;47.558;7.602;2023-06-22T07:36:47;11.90;;;10.80;;
357;SDS011;167;47.558;7.602;2023-06-22T07:39:13;11.17;;;10.17;;
357;SDS011;167;47.558;7.602;2023-06-22T07:41:42;13.07;;;9.80;;
357;SDS011;167;47.558;7.602;2023-06-22T07:44:08;10.53;;;9.60;;
357;SDS011;167;47.558;7.602;2023-06-22T07:46:34;9.63;;;8.63;;
357;SDS011;167;47.558;7.602;2023-06-22T07:49:00;9.00;;;8.10;;
357;SDS011;167;47.558;7.602;2023-06-22T07:51:26;9.47;;;8.57;;
357;SDS011;167;47.558;7.602;2023-06-22T07:53:52;9.57;;;8.77;;
357;SDS011;167;47.558;7.602;2023-06-22T07:56:18;8.80;;;8.03;;
357;SDS011;167;47.558;7.602;2023-06-22T07:58:45;9.53;;;8.17;;
357;SDS011;167;47.558;7.602;2023-06-22T08:01:11;8.27;;;7.57;;
357;SDS011;167;47.558;7.602;2023-06-22T08:03:37;8.20;;;7.37;;
357;SDS011;167;47.558;7.602;2023-06-22T08:06:04;6.87;;;6.40;;
357;SDS011;167;47.558;7.602;2023-06-22T08:08:30;9.20;;;6.40;;
357;SDS011;167;47.558;7.602;2023-06-22T08:10:57;8.80;;;6.20;;
357;SDS011;167;47.558;7.602;2023-06-22T08:13:23;6.93;;;6.40;;
357;SDS011;167;47.558;7.602;2023-06-22T08:15:49;6.07;;;5.57;;
357;SDS011;167;47.558;7.602;2023-06-22T08:18:15;5.90;;;5.40;;
357;SDS011;167;47.558;7.602;2023-06-22T08:20:41;5.37;;;5.00;;
357;SDS011;167;47.558;7.602;2023-06-22T08:23:07;7.97;;;5.70;;
357;SDS011;167;47.558;7.602;2023-06-22T08:25:33;5.10;;;4.67;;
357;SDS011;167;47.558;7.602;2023-06-22T08:28:00;8.67;;;5.50;;
357;SDS011;167;47.558;7.602;2023-06-22T08:30:26;6.33;;;5.77;;
357;SDS011;167;47.558;7.602;2023-06-22T08:32:52;5.50;;;5.10;;
357;SDS011;167;47.558;7.602;2023-06-22T08:35:19;6.13;;;5.63;;
357;SDS011;167;47.558;7.602;2023-06-22T08:37:45;6.17;;;5.70;;
357;SDS011;167;47.558;7.602;2023-06-22T08:40:16;10.30;;;6.20;;
357;SDS011;167;47.558;7.602;2023-06-22T08:42:44;8.00;;;5.70;;
357;SDS011;167;47.558;7.602;2023-06-22T08:45:10;8.40;;;6.10;;
357;SDS011;167;47.558;7.602;2023-06-22T08:47:36;8.40;;;5.43;;
357;SDS011;167;47.558;7.602;2023-06-22T08:50:02;11.07;;;6.20;;
357;SDS011;167;47.558;7.602;2023-06-22T08:52:28;7.57;;;5.97;;
357;SDS011;167;47.558;7.602;2023-06-22T08:54:54;7.13;;;5.90;;
357;SDS011;167;47.558;7.602;2023-06-22T08:57:21;6.13;;;5.53;;
357;SDS011;167;47.558;7.602;2023-06-22T08:59:47;6.03;;;5.43;;
357;SDS011;167;47.558;7.602;2023-06-22T09:02:13;6.13;;;5.57;;
357;SDS011;167;47.558;7.602;2023-06-22T09:04:39;6.27;;;5.67;;
357;SDS011;167;47.558;7.602;2023-06-22T09:07:05;5.77;;;5.37;;
357;SDS011;167;47.558;7.602;2023-06-22T09:09:31;6.53;;;5.33;;
357;SDS011;167;47.558;7.602;2023-06-22T09:11:57;5.57;;;4.97;;
357;SDS011;167;47.558;7.602;2023-06-22T09:14:23;5.70;;;5.30;;
357;SDS011;167;47.558;7.602;2023-06-22T09:16:49;6.20;;;5.70;;
357;SDS011;167;47.558;7.602;2023-06-22T09:19:15;7.57;;;5.83;;
357;SDS011;167;47.558;7.602;2023-06-22T09:21:41;7.20;;;5.27;;
357;SDS011;167;47.558;7.602;2023-06-22T09:24:07;8.20;;;5.67;;
357;SDS011;167;47.558;7.602;2023-06-22T09:26:33;7.27;;;4.83;;
357;SDS011;167;47.558;7.602;2023-06-22T09:28:59;7.03;;;6.43;;
357;SDS011;167;47.558;7.602;2023-06-22T09:31:25;5.47;;;4.97;;
357;SDS011;167;47.558;7.602;2023-06-22T09:33:51;6.80;;;4.67;;
357;SDS011;167;47.558;7.602;2023-06-22T09:36:18;7.90;;;5.50;;
357;SDS011;167;47.558;7.602;2023-06-22T09:38:44;6.93;;;5.13;;
357;SDS011;167;47.558;7.602;2023-06-22T09:41:10;5.70;;;5.20;;
357;SDS011;167;47.558;7.602;2023-06-22T09:43:35;5.37;;;4.83;;
357;SDS011;167;47.558;7.602;2023-06-22T09:46:02;7.37;;;5.40;;
357;SDS011;167;47.558;7.602;2023-06-22T09:48:28;5.97;;;4.70;;
357;SDS011;167;47.558;7.602;2023-06-22T09:50:57;10.43;;;6.20;;
357;SDS011;167;47.558;7.602;2023-06-22T09:53:23;6.80;;;4.60;;
357;SDS011;167;47.558;7.602;2023-06-22T09:55:48;6.20;;;5.60;;
357;SDS011;167;47.558;7.602;2023-06-22T09:58:14;8.10;;;7.30;;
357;SDS011;167;47.558;7.602;2023-06-22T10:00:40;6.70;;;5.70;;
357;SDS011;167;47.558;7.602;2023-06-22T10:03:07;5.37;;;5.00;;
357;SDS011;167;47.558;7.602;2023-06-22T10:05:34;5.80;;;5.20;;
357;SDS011;167;47.558;7.602;2023-06-22T10:07:59;5.77;;;5.30;;
357;SDS011;167;47.558;7.602;2023-06-22T10:10:25;4.90;;;4.60;;
357;SDS011;167;47.558;7.602;2023-06-22T10:12:56;5.43;;;4.93;;
357;SDS011;167;47.558;7.602;2023-06-22T10:15:22;5.80;;;4.53;;
357;SDS011;167;47.558;7.602;2023-06-22T10:17:48;4.77;;;4.30;;
357;SDS011;167;47.558;7.602;2023-06-22T10:20:14;5.27;;;4.83;;
357;SDS011;167;47.558;7.602;2023-06-22T10:22:42;6.07;;;4.57;;
357;SDS011;167;47.558;7.602;2023-06-22T10:25:09;5.77;;;5.07;;
357;SDS011;167;47.558;7.602;2023-06-22T10:27:35;5.23;;;4.63;;
357;SDS011;167;47.558;7.602;2023-06-22T10:30:01;4.90;;;4.60;;
357;SDS011;167;47.558;7.602;2023-06-22T10:32:28;5.40;;;4.90;;
357;SDS011;167;47.558;7.602;2023-06-22T10:34:54;5.27;;;4.83;;
357;SDS011;167;47.558;7.602;2023-06-22T10:37:20;6.27;;;5.03;;
357;SDS011;167;47.558;7.602;2023-06-22T10:39:46;4.43;;;4.13;;
357;SDS011;167;47.558;7.602;2023-06-22T10:42:12;5.40;;;4.90;;
357;SDS011;167;47.558;7.602;2023-06-22T10:44:38;6.20;;;5.47;;
357;SDS011;167;47.558;7.602;2023-06-22T10:47:06;6.33;;;4.63;;
357;SDS011;167;47.558;7.602;2023-06-22T10:49:32;5.50;;;5.10;;
357;SDS011;167;47.558;7.602;2023-06-22T10:51:58;5.33;;;4.83;;
357;SDS011;167;47.558;7.602;2023-06-22T10:54:24;5.20;;;4.17;;
357;SDS011;167;47.558;7.602;2023-06-22T10:56:50;5.97;;;5.43;;
357;SDS011;167;47.558;7.602;2023-06-22T10:59:15;5.37;;;4.80;;
357;SDS011;167;47.558;7.602;2023-06-22T11:01:41;6.43;;;4.63;;
357;SDS011;167;47.558;7.602;2023-06-22T11:04:07;5.37;;;5.07;;
357;SDS011;167;47.558;7.602;2023-06-22T11:06:33;4.50;;;4.10;;
357;SDS011;167;47.558;7.602;2023-06-22T11:08:59;7.83;;;5.10;;
357;SDS011;167;47.558;7.602;2023-06-22T11:11:25;6.10;;;5.27;;
357;SDS011;167;47.558;7.602;2023-06-22T11:13:52;5.70;;;5.03;;
357;SDS011;167;47.558;7.602;2023-06-22T11:16:18;6.83;;;4.90;;
357;SDS011;167;47.558;7.602;2023-06-22T11:18:44;5.97;;;5.07;;
357;SDS011;167;47.558;7.602;2023-06-22T11:21:10;5.60;;;5.10;;
357;SDS011;167;47.558;7.602;2023-06-22T11:23:36;6.17;;;5.40;;
357;SDS011;167;47.558;7.602;2023-06-22T11:26:02;5.33;;;4.93;;
357;SDS011;167;47.558;7.602;2023-06-22T11:28:28;6.00;;;5.60;;
357;SDS011;167;47.558;7.602;2023-06-22T11:30:54;6.23;;;5.73;;
357;SDS011;167;47.558;7.602;2023-06-22T11:33:20;6.20;;;5.73;;
357;SDS011;167;47.558;7.602;2023-06-22T11:35:46;6.60;;;6.10;;
357;SDS011;167;47.558;7.602;2023-06-22T11:38:12;7.20;;;6.10;;
357;SDS011;167;47.558;7.602;2023-06-22T11:40:37;5.77;;;5.27;;
357;SDS011;167;47.558;7.602;2023-06-22T11:43:03;7.00;;;6.17;;
357;SDS011;167;47.558;7.602;2023-06-22T11:45:29;5.90;;;5.40;;
357;SDS011;167;47.558;7.602;2023-06-22T11:47:55;6.23;;;5.73;;
357;SDS011;167;47.558;7.602;2023-06-22T11:50:21;6.03;;;5.00;;
357;SDS011;167;47.558;7.602;2023-06-22T11:52:47;6.37;;;5.73;;
357;SDS011;167;47.558;7.602;2023-06-22T11:55:13;6.17;;;5.73;;
357;SDS011;167;47.558;7.602;2023-06-22T11:57:52;5.77;;;5.33;;
357;SDS011;167;47.558;7.602;2023-06-22T12:00:18;8.40;;;7.23;;
357;SDS011;167;47.558;7.602;2023-06-22T12:02:44;7.60;;;6.27;;
357;SDS011;167;47.558;7.602;2023-06-22T12:05:10;6.43;;;5.83;;
357;SDS011;167;47.558;7.602;2023-06-22T12:07:37;10.10;;;6.63;;
357;SDS011;167;47.558;7.602;2023-06-22T12:10:03;7.07;;;5.60;;
357;SDS011;167;47.558;7.602;2023-06-22T12:12:29;5.23;;;4.60;;
357;SDS011;167;47.558;7.602;2023-06-22T12:14:55;5.73;;;5.13;;
357;SDS011;167;47.558;7.602;2023-06-22T12:17:21;6.03;;;5.43;;
357;SDS011;167;47.558;7.602;2023-06-22T12:19:47;5.00;;;4.60;;
357;SDS011;167;47.558;7.602;2023-06-22T12:22:14;5.67;;;5.27;;
357;SDS011;167;47.558;7.602;2023-06-22T12:24:40;5.73;;;5.23;;
357;SDS011;167;47.558;7.602;2023-06-22T12:27:06;5.50;;;4.80;;
357;SDS011;167;47.558;7.602;2023-06-22T12:29:32;4.87;;;4.40;;
357;SDS011;167;47.558;7.602;2023-06-22T12:31:58;6.00;;;4.00;;
357;SDS011;167;47.558;7.602;2023-06-22T12:34:24;6.17;;;4.80;;
357;SDS011;167;47.558;7.602;2023-06-22T12:36:50;4.60;;;4.20;;
357;SDS011;167;47.558;7.602;2023-06-22T12:39:19;3.70;;;3.40;;
357;SDS011;167;47.558;7.602;2023-06-22T12:41:45;4.80;;;4.23;;
357;SDS011;167;47.558;7.602;2023-06-22T12:44:11;4.43;;;3.80;;
357;SDS011;167;47.558;7.602;2023-06-22T12:46:37;4.23;;;3.83;;
357;SDS011;167;47.558;7.602;2023-06-22T12:49:03;4.60;;;4.20;;
357;SDS011;167;47.558;7.602;2023-06-22T12:51:30;5.97;;;4.70;;
357;SDS011;167;47.558;7.602;2023-06-22T12:53:56;4.43;;;4.10;;
357;SDS011;167;47.558;7.602;2023-06-22T12:56:22;6.07;;;4.50;;
357;SDS011;167;47.558;7.602;2023-06-22T12:58:48;4.03;;;3.73;;
357;SDS011;167;47.558;7.602;2023-06-22T13:01:14;5.57;;;5.17;;
357;SDS011;167;47.558;7.602;2023-06-22T13:03:41;5.03;;;4.50;;
357;SDS011;167;47.558;7.602;2023-06-22T13:06:07;4.67;;;4.27;;
357;SDS011;167;47.558;7.602;2023-06-22T13:08:33;4.50;;;4.07;;
357;SDS011;167;47.558;7.602;2023-06-22T13:10:59;3.83;;;3.60;;
357;SDS011;167;47.558;7.602;2023-06-22T13:13:25;4.93;;;3.80;;
357;SDS011;167;47.558;7.602;2023-06-22T13:15:54;5.03;;;3.80;;
357;SDS011;167;47.558;7.602;2023-06-22T13:18:20;4.93;;;3.90;;
357;SDS011;167;47.558;7.602;2023-06-22T13:20:46;5.27;;;4.33;;
357;SDS011;167;47.558;7.602;2023-06-22T13:23:12;5.83;;;4.50;;
357;SDS011;167;47.558;7.602;2023-06-22T13:25:38;5.20;;;4.70;;
357;SDS011;167;47.558;7.602;2023-06-22T13:28:04;5.23;;;4.30;;
357;SDS011;167;47.558;7.602;2023-06-22T13:30:30;7.03;;;4.40;;
357;SDS011;167;47.558;7.602;2023-06-22T13:32:56;5.80;;;5.17;;
357;SDS011;167;47.558;7.602;2023-06-22T13:35:22;5.10;;;4.43;;
357;SDS011;167;47.558;7.602;2023-06-22T13:37:48;4.80;;;4.27;;
357;SDS011;167;47.558;7.602;2023-06-22T13:40:14;6.13;;;4.40;;
357;SDS011;167;47.558;7.602;2023-06-22T13:42:40;4.93;;;4.37;;
357;SDS011;167;47.558;7.602;2023-06-22T13:45:07;6.70;;;4.93;;
357;SDS011;167;47.558;7.602;2023-06-22T13:47:33;5.10;;;4.70;;
357;SDS011;167;47.558;7.602;2023-06-22T13:49:59;9.43;;;5.30;;
357;SDS011;167;47.558;7.602;2023-06-22T13:52:25;4.73;;;4.43;;
357;SDS011;167;47.558;7.602;2023-06-22T13:54:51;5.10;;;4.70;;
357;SDS011;167;47.558;7.602;2023-06-22T13:57:17;7.80;;;4.97;;
357;SDS011;167;47.558;7.602;2023-06-22T13:59:43;6.00;;;4.70;;
357;SDS011;167;47.558;7.602;2023-06-22T14:02:08;6.63;;;5.20;;
357;SDS011;167;47.558;7.602;2023-06-22T14:04:34;6.13;;;5.60;;
357;SDS011;167;47.558;7.602;2023-06-22T14:07:00;6.03;;;5.53;;
357;SDS011;167;47.558;7.602;2023-06-22T14:09:26;4.80;;;4.40;;
357;SDS011;167;47.558;7.602;2023-06-22T14:11:53;4.60;;;4.10;;
357;SDS011;167;47.558;7.602;2023-06-22T14:14:20;5.50;;;4.83;;
357;SDS011;167;47.558;7.602;2023-06-22T14:16:46;6.97;;;4.83;;
357;SDS011;167;47.558;7.602;2023-06-22T14:19:14;5.43;;;5.03;;
357;SDS011;167;47.558;7.602;2023-06-22T14:21:40;8.43;;;4.93;;
357;SDS011;167;47.558;7.602;2023-06-22T14:24:06;5.13;;;4.57;;
357;SDS011;167;47.558;7.602;2023-06-22T14:26:32;5.43;;;4.93;;
357;SDS011;167;47.558;7.602;2023-06-22T14:28:58;5.67;;;5.03;;
357;SDS011;167;47.558;7.602;2023-06-22T14:31:24;5.97;;;5.40;;
357;SDS011;167;47.558;7.602;2023-06-22T14:33:50;6.93;;;6.33;;
357;SDS011;167;47.558;7.602;2023-06-22T14:36:16;5.77;;;5.17;;
357;SDS011;167;47.558;7.602;2023-06-22T14:38:42;4.97;;;4.50;;
357;SDS011;167;47.558;7.602;2023-06-22T14:41:08;5.03;;;4.33;;
357;SDS011;167;47.558;7.602;2023-06-22T14:43:34;7.97;;;4.33;;
357;SDS011;167;47.558;7.602;2023-06-22T14:46:00;4.93;;;4.53;;
357;SDS011;167;47.558;7.602;2023-06-22T14:48:26;5.37;;;4.73;;
357;SDS011;167;47.558;7.602;2023-06-22T14:50:53;9.90;;;5.53;;
357;SDS011;167;47.558;7.602;2023-06-22T14:53:19;8.13;;;5.03;;
357;SDS011;167;47.558;7.602;2023-06-22T14:55:45;5.07;;;4.57;;
357;SDS011;167;47.558;7.602;2023-06-22T14:58:11;6.17;;;5.60;;
357;SDS011;167;47.558;7.602;2023-06-22T15:00:37;5.43;;;5.03;;
357;SDS011;167;47.558;7.602;2023-06-22T15:03:04;5.93;;;5.10;;
357;SDS011;167;47.558;7.602;2023-06-22T15:05:31;5.97;;;5.10;;
357;SDS011;167;47.558;7.602;2023-06-22T15:07:57;5.80;;;5.20;;
357;SDS011;167;47.558;7.602;2023-06-22T15:10:23;5.03;;;4.53;;
357;SDS011;167;47.558;7.602;2023-06-22T15:12:49;7.73;;;5.40;;
357;SDS011;167;47.558;7.602;2023-06-22T15:15:15;6.23;;;5.50;;
357;SDS011;167;47.558;7.602;2023-06-22T15:17:41;6.40;;;5.93;;
357;SDS011;167;47.558;7.602;2023-06-22T15:20:07;6.37;;;5.77;;
357;SDS011;167;47.558;7.602;2023-06-22T15:22:34;8.03;;;5.07;;
357;SDS011;167;47.558;7.602;2023-06-22T15:24:59;7.47;;;5.20;;
357;SDS011;167;47.558;7.602;2023-06-22T15:27:25;10.80;;;6.63;;
357;SDS011;167;47.558;7.602;2023-06-22T15:29:51;7.17;;;5.77;;
357;SDS011;167;47.558;7.602;2023-06-22T15:32:17;8.17;;;5.83;;
357;SDS011;167;47.558;7.602;2023-06-22T15:34:43;6.53;;;5.70;;
357;SDS011;167;47.558;7.602;2023-06-22T15:37:09;5.73;;;5.23;;
357;SDS011;167;47.558;7.602;2023-06-22T15:39:35;7.40;;;5.37;;